sensor_id;sensor_type;location;lat;lon;timestamp;P1;durP1;ratioP1;P2;durP2;ratioP2
3175;SDS011;1599;51.564;6.990;2023-05-07T00:01:35;41.87;;;32.40;;
3175;SDS011;1599;51.564;6.990;2023-05-07T00:04:01;42.73;;;30.53;;
3175;SDS011;1599;51.564;6.990;2023-05-07T00:06:28;43.30;;;32.93;;
3175;SDS011;1599;51.564;6.990;2023-05-07T00:09:22;40.83;;;29.13;;
3175;SDS011;1599;51.564;6.990;2023-05-07T00:12:00;46.20;;;32.37;;
3175;SDS011;1599;51.564;6.990;2023-05-07T00:15:09;39.73;;;28.63;;
3175;SDS011;1599;51.564;6.990;2023-05-07T00:24:21;43.80;;;30.87;;
3175;SDS011;1599;51.564;6.990;2023-05-07T00:26:46;46.03;;;30.40;;
3175;SDS011;1599;51.564;6.990;2023-05-07T00:29:12;50.13;;;33.10;;
3175;SDS011;1599;51.564;6.990;2023-05-07T00:31:37;48.33;;;32.50;;
3175;SDS011;1599;51.564;6.990;2023-05-07T00:34:03;45.23;;;31.70;;
3175;SDS011;1599;51.564;6.990;2023-05-07T00:36:28;50.53;;;33.27;;
3175;SDS011;1599;51.564;6.990;2023-05-07T00:59:15;48.87;;;30.17;;
3175;SDS011;1599;51.564;6.990;2023-05-07T01:01:40;47.03;;;32.13;;
3175;SDS011;1599;51.564;6.990;2023-05-07T01:04:06;44.07;;;31.60;;
3175;SDS011;1599;51.564;6.990;2023-05-07T01:06:31;47.03;;;34.47;;
3175;SDS011;1599;51.564;6.990;2023-05-07T01:08:57;50.97;;;34.80;;
3175;SDS011;1599;51.564;6.990;2023-05-07T01:11:23;57.13;;;37.20;;
3175;SDS011;1599;51.564;6.990;2023-05-07T01:13:48;52.13;;;36.00;;
3175;SDS011;1599;51.564;6.990;2023-05-07T01:16:15;51.60;;;36.90;;
3175;SDS011;1599;51.564;6.990;2023-05-07T01:18:40;55.43;;;38.03;;
3175;SDS011;1599;51.564;6.990;2023-05-07T01:21:06;57.97;;;38.73;;
3175;SDS011;1599;51.564;6.990;2023-05-07T01:23:32;69.90;;;41.00;;
3175;SDS011;1599;51.564;6.990;2023-05-07T01:25:59;63.77;;;40.83;;
3175;SDS011;1599;51.564;6.990;2023-05-07T01:28:24;68.03;;;41.00;;
3175;SDS011;1599;51.564;6.990;2023-05-07T01:30:52;63.80;;;42.87;;
3175;SDS011;1599;51.564;6.990;2023-05-07T01:33:21;62.20;;;40.30;;
3175;SDS011;1599;51.564;6.990;2023-05-07T01:35:48;69.23;;;43.10;;
3175;SDS011;1599;51.564;6.990;2023-05-07T01:38:15;61.70;;;41.63;;
3175;SDS011;1599;51.564;6.990;2023-05-07T01:40:41;62.80;;;40.80;;
3175;SDS011;1599;51.564;6.990;2023-05-07T01:43:07;57.73;;;38.40;;
3175;SDS011;1599;51.564;6.990;2023-05-07T01:45:33;60.53;;;39.73;;
3175;SDS011;1599;51.564;6.990;2023-05-07T01:48:05;58.93;;;37.40;;
3175;SDS011;1599;51.564;6.990;2023-05-07T01:51:06;57.60;;;38.97;;
3175;SDS011;1599;51.564;6.990;2023-05-07T02:01:07;51.80;;;35.73;;
3175;SDS011;1599;51.564;6.990;2023-05-07T02:22:28;53.87;;;35.07;;
3175;SDS011;1599;51.564;6.990;2023-05-07T02:26:18;50.97;;;35.10;;
3175;SDS011;1599;51.564;6.990;2023-05-07T02:28:43;48.30;;;33.67;;
3175;SDS011;1599;51.564;6.990;2023-05-07T02:31:09;53.17;;;36.17;;
3175;SDS011;1599;51.564;6.990;2023-05-07T02:33:34;52.30;;;35.70;;
3175;SDS011;1599;51.564;6.990;2023-05-07T02:36:10;48.57;;;34.10;;
3175;SDS011;1599;51.564;6.990;2023-05-07T02:38:36;46.00;;;34.50;;
3175;SDS011;1599;51.564;6.990;2023-05-07T02:41:02;45.67;;;35.83;;
3175;SDS011;1599;51.564;6.990;2023-05-07T02:43:28;51.37;;;35.03;;
3175;SDS011;1599;51.564;6.990;2023-05-07T02:46:03;46.60;;;34.10;;
3175;SDS011;1599;51.564;6.990;2023-05-07T02:48:30;49.63;;;33.67;;
3175;SDS011;1599;51.564;6.990;2023-05-07T02:50:56;44.30;;;33.43;;
3175;SDS011;1599;51.564;6.990;2023-05-07T02:53:58;46.63;;;33.67;;
3175;SDS011;1599;51.564;6.990;2023-05-07T02:57:02;52.57;;;36.70;;
3175;SDS011;1599;51.564;6.990;2023-05-07T03:07:08;55.00;;;35.57;;
3175;SDS011;1599;51.564;6.990;2023-05-07T03:09:33;52.33;;;34.73;;
3175;SDS011;1599;51.564;6.990;2023-05-07T03:11:59;53.00;;;34.20;;
3175;SDS011;1599;51.564;6.990;2023-05-07T03:14:25;50.87;;;34.20;;
3175;SDS011;1599;51.564;6.990;2023-05-07T03:16:50;53.67;;;34.27;;
3175;SDS011;1599;51.564;6.990;2023-05-07T03:19:16;53.03;;;34.60;;
3175;SDS011;1599;51.564;6.990;2023-05-07T03:21:41;55.13;;;36.57;;
3175;SDS011;1599;51.564;6.990;2023-05-07T03:24:07;57.13;;;37.67;;
3175;SDS011;1599;51.564;6.990;2023-05-07T03:26:32;58.87;;;35.37;;
3175;SDS011;1599;51.564;6.990;2023-05-07T03:36:07;53.60;;;35.67;;
3175;SDS011;1599;51.564;6.990;2023-05-07T03:39:12;56.97;;;35.73;;
3175;SDS011;1599;51.564;6.990;2023-05-07T03:52:38;52.10;;;36.50;;
3175;SDS011;1599;51.564;6.990;2023-05-07T03:55:20;53.90;;;34.40;;
3175;SDS011;1599;51.564;6.990;2023-05-07T03:57:46;51.83;;;35.80;;
3175;SDS011;1599;51.564;6.990;2023-05-07T04:03:34;55.50;;;36.20;;
3175;SDS011;1599;51.564;6.990;2023-05-07T04:15:14;50.50;;;35.00;;
3175;SDS011;1599;51.564;6.990;2023-05-07T04:18:08;55.13;;;34.90;;
3175;SDS011;1599;51.564;6.990;2023-05-07T04:20:40;48.87;;;35.63;;
3175;SDS011;1599;51.564;6.990;2023-05-07T04:23:07;51.63;;;34.63;;
3175;SDS011;1599;51.564;6.990;2023-05-07T04:25:38;49.90;;;34.07;;
3175;SDS011;1599;51.564;6.990;2023-05-07T04:28:05;50.80;;;30.70;;
3175;SDS011;1599;51.564;6.990;2023-05-07T04:30:43;61.17;;;35.00;;
3175;SDS011;1599;51.564;6.990;2023-05-07T04:36:02;45.90;;;33.57;;
3175;SDS011;1599;51.564;6.990;2023-05-07T04:55:57;43.20;;;30.17;;
3175;SDS011;1599;51.564;6.990;2023-05-07T04:58:27;46.80;;;31.77;;
3175;SDS011;1599;51.564;6.990;2023-05-07T05:07:37;43.03;;;27.23;;
3175;SDS011;1599;51.564;6.990;2023-05-07T05:11:05;39.20;;;27.33;;
3175;SDS011;1599;51.564;6.990;2023-05-07T05:13:44;43.33;;;27.87;;
3175;SDS011;1599;51.564;6.990;2023-05-07T05:20:08;38.93;;;28.00;;
3175;SDS011;1599;51.564;6.990;2023-05-07T05:23:21;35.03;;;24.67;;
3175;SDS011;1599;51.564;6.990;2023-05-07T05:25:55;32.67;;;25.40;;
3175;SDS011;1599;51.564;6.990;2023-05-07T05:45:26;37.47;;;26.67;;
3175;SDS011;1599;51.564;6.990;2023-05-07T05:47:52;37.07;;;26.47;;
3175;SDS011;1599;51.564;6.990;2023-05-07T05:50:17;32.60;;;24.93;;
3175;SDS011;1599;51.564;6.990;2023-05-07T05:52:43;34.73;;;24.47;;
3175;SDS011;1599;51.564;6.990;2023-05-07T05:55:09;33.53;;;25.27;;
3175;SDS011;1599;51.564;6.990;2023-05-07T05:57:35;33.20;;;24.40;;
3175;SDS011;1599;51.564;6.990;2023-05-07T06:00:01;27.30;;;22.10;;
3175;SDS011;1599;51.564;6.990;2023-05-07T06:02:27;29.30;;;22.97;;
3175;SDS011;1599;51.564;6.990;2023-05-07T06:04:53;25.20;;;20.03;;
3175;SDS011;1599;51.564;6.990;2023-05-07T06:07:18;24.53;;;19.40;;
3175;SDS011;1599;51.564;6.990;2023-05-07T06:09:44;23.17;;;19.07;;
3175;SDS011;1599;51.564;6.990;2023-05-07T06:12:09;21.87;;;18.00;;
3175;SDS011;1599;51.564;6.990;2023-05-07T06:14:35;24.60;;;18.83;;
3175;SDS011;1599;51.564;6.990;2023-05-07T06:17:00;24.53;;;17.60;;
3175;SDS011;1599;51.564;6.990;2023-05-07T06:19:26;24.20;;;15.70;;
3175;SDS011;1599;51.564;6.990;2023-05-07T06:21:53;19.67;;;16.70;;
3175;SDS011;1599;51.564;6.990;2023-05-07T06:24:18;20.27;;;15.70;;
3175;SDS011;1599;51.564;6.990;2023-05-07T06:26:44;15.13;;;13.53;;
3175;SDS011;1599;51.564;6.990;2023-05-07T06:29:10;15.93;;;14.33;;
3175;SDS011;1599;51.564;6.990;2023-05-07T06:31:35;16.80;;;13.80;;
3175;SDS011;1599;51.564;6.990;2023-05-07T06:34:01;14.53;;;12.63;;
3175;SDS011;1599;51.564;6.990;2023-05-07T06:36:27;18.03;;;14.03;;
3175;SDS011;1599;51.564;6.990;2023-05-07T06:41:34;14.00;;;12.60;;
3175;SDS011;1599;51.564;6.990;2023-05-07T06:44:00;15.70;;;12.63;;
3175;SDS011;1599;51.564;6.990;2023-05-07T06:46:27;17.33;;;12.30;;
3175;SDS011;1599;51.564;6.990;2023-05-07T06:48:53;16.23;;;12.10;;
3175;SDS011;1599;51.564;6.990;2023-05-07T06:51:18;16.47;;;12.73;;
3175;SDS011;1599;51.564;6.990;2023-05-07T06:53:44;13.97;;;11.50;;
3175;SDS011;1599;51.564;6.990;2023-05-07T06:56:09;12.67;;;10.93;;
3175;SDS011;1599;51.564;6.990;2023-05-07T06:58:35;14.43;;;11.80;;
3175;SDS011;1599;51.564;6.990;2023-05-07T07:01:02;14.33;;;12.50;;
3175;SDS011;1599;51.564;6.990;2023-05-07T07:03:27;12.23;;;10.93;;
3175;SDS011;1599;51.564;6.990;2023-05-07T07:05:53;15.77;;;11.80;;
3175;SDS011;1599;51.564;6.990;2023-05-07T07:08:19;13.67;;;11.80;;
3175;SDS011;1599;51.564;6.990;2023-05-07T07:10:47;11.30;;;10.10;;
3175;SDS011;1599;51.564;6.990;2023-05-07T07:13:13;11.97;;;10.63;;
3175;SDS011;1599;51.564;6.990;2023-05-07T07:15:38;12.70;;;9.67;;
3175;SDS011;1599;51.564;6.990;2023-05-07T07:18:05;9.87;;;8.63;;
3175;SDS011;1599;51.564;6.990;2023-05-07T07:23:38;10.03;;;9.13;;
3175;SDS011;1599;51.564;6.990;2023-05-07T07:26:04;11.50;;;9.40;;
3175;SDS011;1599;51.564;6.990;2023-05-07T07:28:31;11.57;;;9.60;;
3175;SDS011;1599;51.564;6.990;2023-05-07T07:30:57;15.07;;;10.53;;
3175;SDS011;1599;51.564;6.990;2023-05-07T07:33:22;12.67;;;9.83;;
3175;SDS011;1599;51.564;6.990;2023-05-07T07:35:51;9.93;;;8.90;;
3175;SDS011;1599;51.564;6.990;2023-05-07T07:38:16;10.87;;;9.10;;
3175;SDS011;1599;51.564;6.990;2023-05-07T07:40:42;13.40;;;8.70;;
3175;SDS011;1599;51.564;6.990;2023-05-07T07:43:09;15.63;;;9.53;;
3175;SDS011;1599;51.564;6.990;2023-05-07T07:45:35;16.17;;;9.67;;
3175;SDS011;1599;51.564;6.990;2023-05-07T07:48:00;10.63;;;9.20;;
3175;SDS011;1599;51.564;6.990;2023-05-07T07:50:26;10.90;;;9.20;;
3175;SDS011;1599;51.564;6.990;2023-05-07T07:52:51;9.50;;;8.50;;
3175;SDS011;1599;51.564;6.990;2023-05-07T07:55:19;12.10;;;8.77;;
3175;SDS011;1599;51.564;6.990;2023-05-07T07:57:47;10.30;;;8.30;;
3175;SDS011;1599;51.564;6.990;2023-05-07T08:06:47;9.97;;;8.83;;
3175;SDS011;1599;51.564;6.990;2023-05-07T09:26:40;19.20;;;14.20;;
3175;SDS011;1599;51.564;6.990;2023-05-07T09:46:34;13.87;;;12.30;;
3175;SDS011;1599;51.564;6.990;2023-05-07T09:48:53;14.57;;;11.83;;
3175;SDS011;1599;51.564;6.990;2023-05-07T09:51:57;13.30;;;11.37;;
3175;SDS011;1599;51.564;6.990;2023-05-07T09:54:19;10.90;;;9.20;;
3175;SDS011;1599;51.564;6.990;2023-05-07T10:01:05;11.43;;;9.77;;
3175;SDS011;1599;51.564;6.990;2023-05-07T10:03:31;10.70;;;9.60;;
3175;SDS011;1599;51.564;6.990;2023-05-07T10:05:58;12.03;;;9.50;;
3175;SDS011;1599;51.564;6.990;2023-05-07T10:08:23;10.97;;;9.77;;
3175;SDS011;1599;51.564;6.990;2023-05-07T10:10:49;9.80;;;8.70;;
3175;SDS011;1599;51.564;6.990;2023-05-07T10:13:16;9.37;;;8.37;;
3175;SDS011;1599;51.564;6.990;2023-05-07T10:15:42;8.90;;;7.60;;
3175;SDS011;1599;51.564;6.990;2023-05-07T10:18:17;8.90;;;8.00;;
3175;SDS011;1599;51.564;6.990;2023-05-07T10:20:43;10.20;;;7.50;;
3175;SDS011;1599;51.564;6.990;2023-05-07T10:23:12;10.13;;;7.93;;
3175;SDS011;1599;51.564;6.990;2023-05-07T10:25:39;11.10;;;8.90;;
3175;SDS011;1599;51.564;6.990;2023-05-07T10:28:07;10.63;;;8.90;;
3175;SDS011;1599;51.564;6.990;2023-05-07T10:33:10;8.93;;;7.70;;
3175;SDS011;1599;51.564;6.990;2023-05-07T10:35:40;8.83;;;6.90;;
3175;SDS011;1599;51.564;6.990;2023-05-07T10:38:07;10.33;;;8.00;;
3175;SDS011;1599;51.564;6.990;2023-05-07T12:24:48;6.33;;;5.63;;
3175;SDS011;1599;51.564;6.990;2023-05-07T12:27:51;6.60;;;5.73;;
3175;SDS011;1599;51.564;6.990;2023-05-07T12:34:32;8.60;;;7.70;;
3175;SDS011;1599;51.564;6.990;2023-05-07T12:37:54;8.00;;;5.33;;
3175;SDS011;1599;51.564;6.990;2023-05-07T12:40:24;6.77;;;6.07;;
3175;SDS011;1599;51.564;6.990;2023-05-07T12:43:00;8.83;;;5.70;;
3175;SDS011;1599;51.564;6.990;2023-05-07T12:45:25;9.13;;;7.77;;
3175;SDS011;1599;51.564;6.990;2023-05-07T12:47:51;6.13;;;5.53;;
3175;SDS011;1599;51.564;6.990;2023-05-07T12:50:17;8.10;;;6.07;;
3175;SDS011;1599;51.564;6.990;2023-05-07T12:52:43;7.67;;;6.77;;
3175;SDS011;1599;51.564;6.990;2023-05-07T12:55:12;8.77;;;7.50;;
3175;SDS011;1599;51.564;6.990;2023-05-07T12:57:40;10.03;;;8.70;;
3175;SDS011;1599;51.564;6.990;2023-05-07T13:00:10;10.57;;;8.80;;
3175;SDS011;1599;51.564;6.990;2023-05-07T13:02:40;10.67;;;8.87;;
3175;SDS011;1599;51.564;6.990;2023-05-07T13:05:06;14.90;;;8.80;;
3175;SDS011;1599;51.564;6.990;2023-05-07T13:07:33;28.23;;;19.53;;
3175;SDS011;1599;51.564;6.990;2023-05-07T13:09:59;12.90;;;10.27;;
3175;SDS011;1599;51.564;6.990;2023-05-07T13:12:24;13.87;;;9.47;;
3175;SDS011;1599;51.564;6.990;2023-05-07T13:14:50;13.00;;;10.00;;
3175;SDS011;1599;51.564;6.990;2023-05-07T13:17:15;11.47;;;9.90;;
3175;SDS011;1599;51.564;6.990;2023-05-07T13:19:41;10.83;;;9.63;;
3175;SDS011;1599;51.564;6.990;2023-05-07T13:22:06;12.67;;;9.40;;
3175;SDS011;1599;51.564;6.990;2023-05-07T13:24:32;12.80;;;10.73;;
3175;SDS011;1599;51.564;6.990;2023-05-07T13:26:57;11.70;;;10.10;;
3175;SDS011;1599;51.564;6.990;2023-05-07T13:29:23;11.60;;;10.33;;
3175;SDS011;1599;51.564;6.990;2023-05-07T13:31:55;11.40;;;9.37;;
3175;SDS011;1599;51.564;6.990;2023-05-07T13:34:24;12.73;;;9.03;;
3175;SDS011;1599;51.564;6.990;2023-05-07T13:36:49;12.23;;;10.47;;
3175;SDS011;1599;51.564;6.990;2023-05-07T13:39:15;12.77;;;10.07;;
3175;SDS011;1599;51.564;6.990;2023-05-07T13:41:40;13.30;;;11.23;;
3175;SDS011;1599;51.564;6.990;2023-05-07T13:44:06;13.43;;;10.97;;
3175;SDS011;1599;51.564;6.990;2023-05-07T13:46:31;13.30;;;11.13;;
3175;SDS011;1599;51.564;6.990;2023-05-07T13:48:57;15.37;;;11.93;;
3175;SDS011;1599;51.564;6.990;2023-05-07T13:51:23;13.70;;;11.40;;
3175;SDS011;1599;51.564;6.990;2023-05-07T13:53:51;13.07;;;10.97;;
3175;SDS011;1599;51.564;6.990;2023-05-07T13:57:25;12.57;;;10.63;;
3175;SDS011;1599;51.564;6.990;2023-05-07T13:59:50;13.60;;;11.90;;
3175;SDS011;1599;51.564;6.990;2023-05-07T14:02:16;15.07;;;11.00;;
3175;SDS011;1599;51.564;6.990;2023-05-07T14:04:41;12.30;;;11.10;;
3175;SDS011;1599;51.564;6.990;2023-05-07T14:07:07;15.40;;;10.97;;
3175;SDS011;1599;51.564;6.990;2023-05-07T14:19:37;15.23;;;12.00;;
3175;SDS011;1599;51.564;6.990;2023-05-07T14:46:35;28.93;;;21.03;;
3175;SDS011;1599;51.564;6.990;2023-05-07T14:49:01;15.73;;;13.50;;
3175;SDS011;1599;51.564;6.990;2023-05-07T14:51:27;17.87;;;14.73;;
3175;SDS011;1599;51.564;6.990;2023-05-07T14:53:53;16.40;;;12.97;;
3175;SDS011;1599;51.564;6.990;2023-05-07T14:56:19;13.60;;;10.63;;
3175;SDS011;1599;51.564;6.990;2023-05-07T14:58:46;12.50;;;10.50;;
3175;SDS011;1599;51.564;6.990;2023-05-07T15:01:13;14.77;;;11.03;;
3175;SDS011;1599;51.564;6.990;2023-05-07T15:10:23;15.67;;;12.67;;
3175;SDS011;1599;51.564;6.990;2023-05-07T15:12:49;14.40;;;12.10;;
3175;SDS011;1599;51.564;6.990;2023-05-07T15:15:14;16.47;;;12.90;;
3175;SDS011;1599;51.564;6.990;2023-05-07T15:17:40;15.07;;;12.53;;
3175;SDS011;1599;51.564;6.990;2023-05-07T15:20:06;16.30;;;12.50;;
3175;SDS011;1599;51.564;6.990;2023-05-07T15:22:32;16.33;;;11.80;;
3175;SDS011;1599;51.564;6.990;2023-05-07T15:24:57;13.47;;;10.97;;
3175;SDS011;1599;51.564;6.990;2023-05-07T15:27:23;12.63;;;10.90;;
3175;SDS011;1599;51.564;6.990;2023-05-07T15:29:49;18.13;;;12.43;;
3175;SDS011;1599;51.564;6.990;2023-05-07T15:32:15;14.60;;;10.60;;
3175;SDS011;1599;51.564;6.990;2023-05-07T15:34:41;13.27;;;11.77;;
3175;SDS011;1599;51.564;6.990;2023-05-07T15:37:06;14.13;;;12.20;;
3175;SDS011;1599;51.564;6.990;2023-05-07T15:39:32;15.43;;;11.30;;
3175;SDS011;1599;51.564;6.990;2023-05-07T15:41:57;14.90;;;11.80;;
3175;SDS011;1599;51.564;6.990;2023-05-07T15:44:23;17.90;;;11.90;;
3175;SDS011;1599;51.564;6.990;2023-05-07T15:46:52;12.07;;;10.80;;
3175;SDS011;1599;51.564;6.990;2023-05-07T15:49:18;13.47;;;11.60;;
3175;SDS011;1599;51.564;6.990;2023-05-07T15:51:43;13.93;;;11.40;;
3175;SDS011;1599;51.564;6.990;2023-05-07T15:54:09;13.60;;;11.83;;
3175;SDS011;1599;51.564;6.990;2023-05-07T15:56:35;12.90;;;11.10;;
3175;SDS011;1599;51.564;6.990;2023-05-07T15:59:00;14.67;;;11.43;;
3175;SDS011;1599;51.564;6.990;2023-05-07T16:01:26;11.57;;;10.37;;
3175;SDS011;1599;51.564;6.990;2023-05-07T16:03:52;13.30;;;10.87;;
3175;SDS011;1599;51.564;6.990;2023-05-07T16:06:18;14.60;;;11.73;;
3175;SDS011;1599;51.564;6.990;2023-05-07T16:08:43;14.23;;;10.00;;
3175;SDS011;1599;51.564;6.990;2023-05-07T16:11:09;13.00;;;11.20;;
3175;SDS011;1599;51.564;6.990;2023-05-07T16:13:35;14.47;;;10.60;;
3175;SDS011;1599;51.564;6.990;2023-05-07T16:16:01;11.97;;;10.10;;
3175;SDS011;1599;51.564;6.990;2023-05-07T16:18:26;14.03;;;11.47;;
3175;SDS011;1599;51.564;6.990;2023-05-07T16:20:52;15.57;;;12.40;;
3175;SDS011;1599;51.564;6.990;2023-05-07T16:23:21;13.23;;;11.90;;
3175;SDS011;1599;51.564;6.990;2023-05-07T16:25:48;12.40;;;10.80;;
3175;SDS011;1599;51.564;6.990;2023-05-07T16:28:13;12.60;;;11.30;;
3175;SDS011;1599;51.564;6.990;2023-05-07T16:37:29;13.10;;;11.20;;
3175;SDS011;1599;51.564;6.990;2023-05-07T16:40:34;14.63;;;11.70;;
3175;SDS011;1599;51.564;6.990;2023-05-07T16:43:01;12.67;;;11.37;;
3175;SDS011;1599;51.564;6.990;2023-05-07T16:45:27;14.50;;;12.30;;
3175;SDS011;1599;51.564;6.990;2023-05-07T16:47:53;15.37;;;12.73;;
3175;SDS011;1599;51.564;6.990;2023-05-07T16:50:20;12.97;;;11.60;;
3175;SDS011;1599;51.564;6.990;2023-05-07T16:52:46;13.80;;;11.70;;
3175;SDS011;1599;51.564;6.990;2023-05-07T16:55:11;14.03;;;11.87;;
3175;SDS011;1599;51.564;6.990;2023-05-07T16:57:37;14.53;;;12.67;;
3175;SDS011;1599;51.564;6.990;2023-05-07T17:00:03;14.00;;;11.77;;
3175;SDS011;1599;51.564;6.990;2023-05-07T17:02:31;12.67;;;11.37;;
3175;SDS011;1599;51.564;6.990;2023-05-07T17:04:57;13.23;;;11.77;;
3175;SDS011;1599;51.564;6.990;2023-05-07T17:07:24;16.03;;;12.77;;
3175;SDS011;1599;51.564;6.990;2023-05-07T17:09:51;14.00;;;12.10;;
3175;SDS011;1599;51.564;6.990;2023-05-07T17:12:16;13.20;;;11.80;;
3175;SDS011;1599;51.564;6.990;2023-05-07T17:14:58;12.33;;;10.70;;
3175;SDS011;1599;51.564;6.990;2023-05-07T17:17:24;16.40;;;12.20;;
3175;SDS011;1599;51.564;6.990;2023-05-07T17:19:49;12.00;;;10.70;;
3175;SDS011;1599;51.564;6.990;2023-05-07T17:22:15;21.10;;;11.27;;
3175;SDS011;1599;51.564;6.990;2023-05-07T17:24:41;14.90;;;12.30;;
3175;SDS011;1599;51.564;6.990;2023-05-07T17:27:06;15.60;;;13.00;;
3175;SDS011;1599;51.564;6.990;2023-05-07T17:29:32;12.57;;;11.27;;
3175;SDS011;1599;51.564;6.990;2023-05-07T17:31:58;16.30;;;12.20;;
3175;SDS011;1599;51.564;6.990;2023-05-07T17:34:23;15.73;;;11.77;;
3175;SDS011;1599;51.564;6.990;2023-05-07T17:36:49;14.07;;;11.87;;
3175;SDS011;1599;51.564;6.990;2023-05-07T17:39:14;16.33;;;12.63;;
3175;SDS011;1599;51.564;6.990;2023-05-07T17:41:40;14.20;;;11.93;;
3175;SDS011;1599;51.564;6.990;2023-05-07T17:44:05;12.93;;;11.47;;
3175;SDS011;1599;51.564;6.990;2023-05-07T17:46:31;13.20;;;11.20;;
3175;SDS011;1599;51.564;6.990;2023-05-07T17:48:57;14.20;;;12.30;;
3175;SDS011;1599;51.564;6.990;2023-05-07T17:51:23;15.10;;;12.33;;
3175;SDS011;1599;51.564;6.990;2023-05-07T17:53:50;13.37;;;11.97;;
3175;SDS011;1599;51.564;6.990;2023-05-07T17:56:15;14.77;;;12.63;;
3175;SDS011;1599;51.564;6.990;2023-05-07T17:58:41;15.13;;;13.10;;
3175;SDS011;1599;51.564;6.990;2023-05-07T18:01:06;15.00;;;12.77;;
3175;SDS011;1599;51.564;6.990;2023-05-07T18:03:32;14.70;;;12.80;;
3175;SDS011;1599;51.564;6.990;2023-05-07T18:05:58;15.00;;;12.77;;
3175;SDS011;1599;51.564;6.990;2023-05-07T18:35:23;16.60;;;14.27;;
3175;SDS011;1599;51.564;6.990;2023-05-07T18:37:49;16.93;;;13.10;;
3175;SDS011;1599;51.564;6.990;2023-05-07T19:00:25;17.87;;;14.33;;
3175;SDS011;1599;51.564;6.990;2023-05-07T19:02:51;20.93;;;16.40;;
3175;SDS011;1599;51.564;6.990;2023-05-07T19:05:16;17.27;;;13.07;;
3175;SDS011;1599;51.564;6.990;2023-05-07T19:07:42;18.83;;;13.50;;
3175;SDS011;1599;51.564;6.990;2023-05-07T19:10:09;18.23;;;14.83;;
3175;SDS011;1599;51.564;6.990;2023-05-07T19:12:35;22.00;;;16.50;;
3175;SDS011;1599;51.564;6.990;2023-05-07T19:15:00;29.60;;;23.80;;
3175;SDS011;1599;51.564;6.990;2023-05-07T19:17:26;31.63;;;21.60;;
3175;SDS011;1599;51.564;6.990;2023-05-07T19:19:51;33.23;;;24.67;;
3175;SDS011;1599;51.564;6.990;2023-05-07T19:22:17;33.27;;;23.80;;
3175;SDS011;1599;51.564;6.990;2023-05-07T19:24:43;29.57;;;19.00;;
3175;SDS011;1599;51.564;6.990;2023-05-07T19:27:08;27.60;;;19.30;;
3175;SDS011;1599;51.564;6.990;2023-05-07T19:29:34;23.20;;;15.73;;
3175;SDS011;1599;51.564;6.990;2023-05-07T19:32:00;16.40;;;14.17;;
3175;SDS011;1599;51.564;6.990;2023-05-07T19:34:26;15.50;;;12.13;;
3175;SDS011;1599;51.564;6.990;2023-05-07T19:36:54;15.90;;;12.90;;
3175;SDS011;1599;51.564;6.990;2023-05-07T19:39:20;17.30;;;13.93;;
3175;SDS011;1599;51.564;6.990;2023-05-07T19:41:45;21.20;;;13.80;;
3175;SDS011;1599;51.564;6.990;2023-05-07T19:44:11;18.37;;;13.03;;
3175;SDS011;1599;51.564;6.990;2023-05-07T19:46:37;15.93;;;13.67;;
3175;SDS011;1599;51.564;6.990;2023-05-07T19:49:04;14.30;;;12.47;;
3175;SDS011;1599;51.564;6.990;2023-05-07T19:51:30;17.00;;;13.47;;
3175;SDS011;1599;51.564;6.990;2023-05-07T19:53:57;15.57;;;13.00;;
3175;SDS011;1599;51.564;6.990;2023-05-07T19:56:23;15.50;;;12.20;;
3175;SDS011;1599;51.564;6.990;2023-05-07T19:58:49;15.57;;;12.33;;
3175;SDS011;1599;51.564;6.990;2023-05-07T20:01:15;15.23;;;13.30;;
3175;SDS011;1599;51.564;6.990;2023-05-07T20:10:25;16.20;;;13.40;;
3175;SDS011;1599;51.564;6.990;2023-05-07T20:48:30;15.80;;;12.60;;
3175;SDS011;1599;51.564;6.990;2023-05-07T20:50:57;14.23;;;12.70;;
3175;SDS011;1599;51.564;6.990;2023-05-07T20:53:23;15.93;;;12.10;;
3175;SDS011;1599;51.564;6.990;2023-05-07T20:55:48;16.57;;;12.57;;
3175;SDS011;1599;51.564;6.990;2023-05-07T20:58:14;18.97;;;14.00;;
3175;SDS011;1599;51.564;6.990;2023-05-07T21:00:40;17.00;;;13.30;;
3175;SDS011;1599;51.564;6.990;2023-05-07T21:03:05;16.50;;;13.90;;
3175;SDS011;1599;51.564;6.990;2023-05-07T21:05:31;16.77;;;14.20;;
3175;SDS011;1599;51.564;6.990;2023-05-07T21:07:56;17.00;;;13.50;;
3175;SDS011;1599;51.564;6.990;2023-05-07T21:10:22;17.67;;;13.67;;
3175;SDS011;1599;51.564;6.990;2023-05-07T21:12:48;17.77;;;13.67;;
3175;SDS011;1599;51.564;6.990;2023-05-07T21:15:13;17.03;;;13.63;;
3175;SDS011;1599;51.564;6.990;2023-05-07T21:17:39;17.60;;;14.90;;
3175;SDS011;1599;51.564;6.990;2023-05-07T21:20:05;17.33;;;14.43;;
3175;SDS011;1599;51.564;6.990;2023-05-07T21:22:31;18.80;;;14.90;;
3175;SDS011;1599;51.564;6.990;2023-05-07T21:24:58;16.70;;;14.70;;
3175;SDS011;1599;51.564;6.990;2023-05-07T21:27:23;16.23;;;14.40;;
3175;SDS011;1599;51.564;6.990;2023-05-07T21:29:49;18.20;;;14.03;;
3175;SDS011;1599;51.564;6.990;2023-05-07T21:32:15;18.07;;;15.53;;
3175;SDS011;1599;51.564;6.990;2023-05-07T21:34:40;16.30;;;14.13;;
3175;SDS011;1599;51.564;6.990;2023-05-07T21:37:06;20.77;;;16.20;;
3175;SDS011;1599;51.564;6.990;2023-05-07T21:39:31;21.10;;;16.50;;
3175;SDS011;1599;51.564;6.990;2023-05-07T21:41:57;22.30;;;16.70;;
3175;SDS011;1599;51.564;6.990;2023-05-07T21:44:22;19.30;;;15.33;;
3175;SDS011;1599;51.564;6.990;2023-05-07T21:46:48;22.73;;;15.83;;
3175;SDS011;1599;51.564;6.990;2023-05-07T21:49:13;20.83;;;15.97;;
3175;SDS011;1599;51.564;6.990;2023-05-07T21:51:39;19.87;;;16.40;;
3175;SDS011;1599;51.564;6.990;2023-05-07T21:54:04;24.33;;;16.70;;
3175;SDS011;1599;51.564;6.990;2023-05-07T21:56:30;20.17;;;16.23;;
3175;SDS011;1599;51.564;6.990;2023-05-07T21:58:56;21.27;;;17.03;;
3175;SDS011;1599;51.564;6.990;2023-05-07T22:01:22;21.53;;;17.53;;
3175;SDS011;1599;51.564;6.990;2023-05-07T22:03:47;21.70;;;16.90;;
3175;SDS011;1599;51.564;6.990;2023-05-07T22:06:13;19.03;;;16.03;;
3175;SDS011;1599;51.564;6.990;2023-05-07T22:08:41;20.97;;;17.10;;
3175;SDS011;1599;51.564;6.990;2023-05-07T22:11:07;23.60;;;17.40;;
3175;SDS011;1599;51.564;6.990;2023-05-07T22:13:32;19.53;;;16.97;;
3175;SDS011;1599;51.564;6.990;2023-05-07T22:15:58;25.13;;;18.20;;
3175;SDS011;1599;51.564;6.990;2023-05-07T22:18:23;21.63;;;17.20;;
3175;SDS011;1599;51.564;6.990;2023-05-07T22:20:50;20.53;;;17.20;;
3175;SDS011;1599;51.564;6.990;2023-05-07T22:23:16;18.90;;;15.97;;
3175;SDS011;1599;51.564;6.990;2023-05-07T22:25:41;20.73;;;16.33;;
3175;SDS011;1599;51.564;6.990;2023-05-07T22:28:07;22.47;;;17.80;;
3175;SDS011;1599;51.564;6.990;2023-05-07T22:30:32;21.50;;;17.67;;
3175;SDS011;1599;51.564;6.990;2023-05-07T22:32:58;24.80;;;18.33;;
3175;SDS011;1599;51.564;6.990;2023-05-07T22:35:23;22.27;;;18.17;;
3175;SDS011;1599;51.564;6.990;2023-05-07T22:37:49;23.17;;;17.77;;
3175;SDS011;1599;51.564;6.990;2023-05-07T22:40:14;21.33;;;16.73;;
3175;SDS011;1599;51.564;6.990;2023-05-07T22:42:40;22.87;;;17.90;;
3175;SDS011;1599;51.564;6.990;2023-05-07T22:45:06;21.47;;;18.33;;
3175;SDS011;1599;51.564;6.990;2023-05-07T22:47:31;23.23;;;18.90;;
3175;SDS011;1599;51.564;6.990;2023-05-07T23:26:55;25.93;;;19.50;;
3175;SDS011;1599;51.564;6.990;2023-05-07T23:29:21;21.97;;;18.30;;
3175;SDS011;1599;51.564;6.990;2023-05-07T23:31:46;23.27;;;17.90;;
3175;SDS011;1599;51.564;6.990;2023-05-07T23:34:12;26.57;;;19.00;;
3175;SDS011;1599;51.564;6.990;2023-05-07T23:36:37;24.00;;;18.47;;
3175;SDS011;1599;51.564;6.990;2023-05-07T23:39:03;21.47;;;17.90;;
3175;SDS011;1599;51.564;6.990;2023-05-07T23:41:28;24.90;;;19.00;;
3175;SDS011;1599;51.564;6.990;2023-05-07T23:43:54;21.13;;;17.17;;
3175;SDS011;1599;51.564;6.990;2023-05-07T23:46:20;25.83;;;18.23;;
3175;SDS011;1599;51.564;6.990;2023-05-07T23:48:45;25.87;;;19.00;;
3175;SDS011;1599;51.564;6.990;2023-05-07T23:51:11;23.67;;;19.57;;
3175;SDS011;1599;51.564;6.990;2023-05-07T23:53:36;23.60;;;20.07;;